createdAt,value
2017-09-11T00:00:57.346Z,65.00
2017-09-11T00:03:32.339Z,65.20
2017-09-11T00:06:01.031Z,65.60
2017-09-11T00:08:29.729Z,66.00
2017-09-11T00:10:58.407Z,66.20
2017-09-11T00:13:27.095Z,65.60
2017-09-11T00:15:55.783Z,64.70
2017-09-11T00:18:24.483Z,64.30
2017-09-11T00:20:53.171Z,63.50
2017-09-11T00:23:21.850Z,62.60
2017-09-11T00:25:50.539Z,62.40
2017-09-11T00:28:19.231Z,62.90
2017-09-11T00:30:47.944Z,63.40
2017-09-11T00:33:16.627Z,63.30
2017-09-11T00:35:51.491Z,63.10
2017-09-11T00:38:21.586Z,62.80
2017-09-11T00:40:52.567Z,62.80
2017-09-11T00:43:27.572Z,63.00
2017-09-11T00:45:56.271Z,63.00
2017-09-11T00:48:25.803Z,63.30
2017-09-11T00:50:54.492Z,63.90
2017-09-11T00:53:23.183Z,64.50
2017-09-11T00:55:51.863Z,64.90
2017-09-11T00:58:26.712Z,63.70
2017-09-11T01:00:55.395Z,62.90
2017-09-11T01:03:24.079Z,62.90
2017-09-11T01:05:52.763Z,63.20
2017-09-11T01:08:21.457Z,63.40
2017-09-11T01:10:50.135Z,63.70
2017-09-11T01:13:18.824Z,63.70
2017-09-11T01:15:47.511Z,63.30
2017-09-11T01:18:16.211Z,62.90
2017-09-11T01:20:46.868Z,62.70
2017-09-11T01:23:15.580Z,62.90
2017-09-11T01:25:50.493Z,62.80
2017-09-11T01:28:19.246Z,62.50
2017-09-11T01:30:47.914Z,62.70
2017-09-11T01:33:16.696Z,62.60
2017-09-11T01:35:46.231Z,62.60
2017-09-11T01:38:14.918Z,62.70
2017-09-11T01:40:43.623Z,62.90
2017-09-11T01:43:12.308Z,62.80
2017-09-11T01:45:40.996Z,63.80
2017-09-11T01:48:09.695Z,64.60
2017-09-11T01:50:38.384Z,65.50
2017-09-11T01:53:07.100Z,65.80
2017-09-11T01:55:35.791Z,66.20
2017-09-11T01:58:05.240Z,65.10
2017-09-11T02:00:33.932Z,65.10
2017-09-11T02:03:02.619Z,63.60
2017-09-11T02:05:31.338Z,63.00
2017-09-11T02:08:00.027Z,63.70
2017-09-11T02:10:28.715Z,64.60
2017-09-11T02:12:57.416Z,65.00
2017-09-11T02:15:26.110Z,65.20
2017-09-11T02:17:54.806Z,65.40
2017-09-11T02:20:29.714Z,65.50
2017-09-11T02:22:58.439Z,65.40
2017-09-11T02:25:27.128Z,64.80
2017-09-11T02:27:55.820Z,63.70
2017-09-11T02:30:24.521Z,63.80
2017-09-11T02:32:53.206Z,63.70
2017-09-11T02:35:21.903Z,63.80
2017-09-11T02:37:50.582Z,64.10
2017-09-11T02:40:19.269Z,64.80
2017-09-11T02:42:47.953Z,65.40
2017-09-11T02:45:16.644Z,65.60
2017-09-11T02:47:45.351Z,65.80
2017-09-11T02:50:14.034Z,66.00
2017-09-11T02:52:42.731Z,66.10
2017-09-11T02:55:12.282Z,66.50
2017-09-11T02:57:47.231Z,67.00
2017-09-11T03:00:15.948Z,67.40
2017-09-11T03:02:44.639Z,66.70
2017-09-11T03:05:13.415Z,65.40
2017-09-11T03:07:42.082Z,65.50
2017-09-11T03:10:10.772Z,65.00
2017-09-11T03:12:45.680Z,65.00
2017-09-11T03:15:14.377Z,65.30
2017-09-11T03:17:43.054Z,65.50
2017-09-11T03:20:11.757Z,65.60
2017-09-11T03:22:40.443Z,65.80
2017-09-11T03:25:15.360Z,65.90
2017-09-11T03:27:44.043Z,65.80
2017-09-11T03:30:12.732Z,66.10
2017-09-11T03:32:42.362Z,65.50
2017-09-11T03:35:11.046Z,64.80
2017-09-11T03:37:39.768Z,64.50
2017-09-11T03:40:08.454Z,64.40
2017-09-11T03:42:37.903Z,64.30
2017-09-11T03:45:06.598Z,64.30
2017-09-11T03:47:37.171Z,63.60
2017-09-11T03:50:05.879Z,63.20
2017-09-11T03:52:34.558Z,63.30
2017-09-11T03:55:03.243Z,63.20
2017-09-11T03:57:31.939Z,63.10
2017-09-11T04:00:00.627Z,62.90
2017-09-11T04:02:29.335Z,62.70
2017-09-11T04:04:58.031Z,62.80
2017-09-11T04:07:26.721Z,62.80
2017-09-11T04:09:55.419Z,63.00
2017-09-11T04:12:24.113Z,62.90
2017-09-11T04:14:52.827Z,63.00
2017-09-11T04:17:21.523Z,62.70
2017-09-11T04:19:56.559Z,62.70
2017-09-11T04:22:25.252Z,61.90
2017-09-11T04:24:53.941Z,62.00
2017-09-11T04:27:23.651Z,63.40
2017-09-11T04:29:52.347Z,65.20
2017-09-11T04:32:21.919Z,66.20
2017-09-11T04:34:50.614Z,66.60
2017-09-11T04:37:19.311Z,67.00
2017-09-11T04:39:47.999Z,66.10
2017-09-11T04:42:16.700Z,64.10
2017-09-11T04:44:45.419Z,63.40
2017-09-11T04:47:14.115Z,64.00
2017-09-11T04:49:42.815Z,65.20
2017-09-11T04:52:17.800Z,65.90
2017-09-11T04:54:46.492Z,66.80
2017-09-11T04:57:21.536Z,67.40
2017-09-11T04:59:50.238Z,67.60
2017-09-11T05:02:18.926Z,67.70
2017-09-11T05:04:47.626Z,68.00
2017-09-11T05:07:16.356Z,67.20
2017-09-11T05:09:45.088Z,66.80
2017-09-11T05:12:13.787Z,67.80
2017-09-11T05:14:42.471Z,68.30
2017-09-11T05:17:11.168Z,68.70
2017-09-11T05:19:39.861Z,69.10
2017-09-11T05:22:08.583Z,69.40
2017-09-11T05:24:43.642Z,69.60
2017-09-11T05:27:18.549Z,69.80
2017-09-11T05:29:47.239Z,69.50
2017-09-11T05:32:17.487Z,69.10
2017-09-11T05:34:46.155Z,69.00
2017-09-11T05:37:14.844Z,69.20
2017-09-11T05:39:49.839Z,69.30
2017-09-11T05:42:19.375Z,69.70
2017-09-11T05:44:54.232Z,69.80
2017-09-11T05:47:23.768Z,69.90
2017-09-11T05:49:59.548Z,69.40
2017-09-11T05:52:28.231Z,68.90
2017-09-11T05:54:56.916Z,67.40
2017-09-11T05:57:31.783Z,66.20
2017-09-11T06:00:00.461Z,65.40
2017-09-11T06:02:32.184Z,65.20
2017-09-11T06:05:07.091Z,64.90
2017-09-11T06:07:36.655Z,64.60
2017-09-11T06:10:11.599Z,64.60
2017-09-11T06:12:40.312Z,65.70
2017-09-11T06:15:09.003Z,66.30
2017-09-11T06:17:57.204Z,67.00
2017-09-11T06:20:32.215Z,67.50
2017-09-11T06:23:00.935Z,67.60
2017-09-11T06:25:29.622Z,67.50
2017-09-11T06:27:58.315Z,67.20
2017-09-11T06:30:27.020Z,66.50
2017-09-11T06:32:55.707Z,65.70
2017-09-11T06:35:24.431Z,65.20
2017-09-11T06:37:53.125Z,65.00
2017-09-11T06:40:21.816Z,64.30
2017-09-11T06:42:50.511Z,64.10
2017-09-11T06:45:19.204Z,63.60
2017-09-11T06:47:47.923Z,62.20
2017-09-11T06:50:16.610Z,61.70
2017-09-11T06:52:45.300Z,61.20
2017-09-11T06:55:14.000Z,61.20
2017-09-11T06:57:42.687Z,61.00
2017-09-11T07:00:11.411Z,60.80
2017-09-11T07:02:40.091Z,60.80
2017-09-11T07:05:14.903Z,60.50
2017-09-11T07:07:49.823Z,60.10
2017-09-11T07:10:18.539Z,59.30
2017-09-11T07:13:04.906Z,59.10
2017-09-11T07:15:33.563Z,58.70
2017-09-11T07:18:08.496Z,59.00
2017-09-11T07:20:37.202Z,59.00
2017-09-11T07:23:05.888Z,58.50
2017-09-11T07:25:34.572Z,58.20
2017-09-11T07:28:09.499Z,57.30
2017-09-11T07:30:39.059Z,55.50
2017-09-11T07:33:07.772Z,54.70
2017-09-11T07:35:36.455Z,53.00
2017-09-11T07:38:11.275Z,52.40
2017-09-11T07:40:39.947Z,51.30
2017-09-11T07:43:09.400Z,48.90
2017-09-11T07:45:38.079Z,48.90
2017-09-11T07:48:12.916Z,47.60
2017-09-11T07:50:48.499Z,48.10
2017-09-11T07:53:17.180Z,48.10
2017-09-11T07:55:45.863Z,47.70
2017-09-11T07:58:14.568Z,47.40
2017-09-11T08:00:43.251Z,47.60
2017-09-11T08:03:11.923Z,47.00
2017-09-11T08:05:46.950Z,47.30
2017-09-11T08:08:21.888Z,47.40
2017-09-11T08:10:56.831Z,48.10
2017-09-11T08:13:25.509Z,48.20
2017-09-11T08:16:00.476Z,48.10
2017-09-11T08:18:29.492Z,48.00
2017-09-11T08:20:58.139Z,47.70
2017-09-11T08:23:27.747Z,47.20
2017-09-11T08:25:56.427Z,46.80
2017-09-11T08:28:28.551Z,47.00
2017-09-11T08:30:57.230Z,46.90
2017-09-11T08:33:25.907Z,47.40
2017-09-11T08:35:56.606Z,47.50
2017-09-11T08:38:26.321Z,47.80
2017-09-11T08:40:55.867Z,48.40
2017-09-11T08:43:24.548Z,48.90
2017-09-11T08:45:53.227Z,48.80
2017-09-11T08:48:27.906Z,49.50
2017-09-11T08:50:57.463Z,49.70
2017-09-11T08:53:26.164Z,50.00
2017-09-11T08:55:59.911Z,50.20
2017-09-11T08:58:28.595Z,49.60
2017-09-11T09:00:57.288Z,49.90
2017-09-11T09:03:25.959Z,49.60
2017-09-11T09:05:54.647Z,49.60
2017-09-11T09:08:23.331Z,50.00
2017-09-11T09:10:52.046Z,49.00
2017-09-11T09:13:20.728Z,49.00
2017-09-11T09:15:55.743Z,49.10
2017-09-11T09:18:24.415Z,47.90
2017-09-11T09:20:59.364Z,46.10
2017-09-11T09:23:28.036Z,43.60
2017-09-11T09:25:56.710Z,40.10
2017-09-11T09:28:25.395Z,38.90
2017-09-11T09:30:54.079Z,36.30
2017-09-11T09:33:22.780Z,36.20
2017-09-11T09:35:52.328Z,36.30
2017-09-11T09:38:27.272Z,33.80
2017-09-11T09:40:55.952Z,33.00
2017-09-11T09:43:24.623Z,32.70
2017-09-11T09:45:53.311Z,32.80
2017-09-11T09:48:21.989Z,33.20
2017-09-11T09:50:57.020Z,33.80
2017-09-11T09:53:25.691Z,33.70
2017-09-11T09:55:54.368Z,33.70
2017-09-11T09:58:23.054Z,35.60
2017-09-11T10:00:51.737Z,37.00
2017-09-11T10:03:20.438Z,37.40
2017-09-11T10:05:55.213Z,37.90
2017-09-11T10:08:23.903Z,37.60
2017-09-11T10:10:53.433Z,37.50
2017-09-11T10:13:27.187Z,36.80
2017-09-11T10:15:55.860Z,36.60
2017-09-11T10:18:30.976Z,35.50
2017-09-11T10:21:05.862Z,35.00
2017-09-11T10:23:36.199Z,36.00
2017-09-11T10:26:04.884Z,36.00
2017-09-11T10:28:33.568Z,36.50
2017-09-11T10:31:02.266Z,37.70
2017-09-11T10:33:37.108Z,38.60
2017-09-11T10:36:05.804Z,39.50
2017-09-11T10:38:34.483Z,40.40
2017-09-11T10:41:03.928Z,41.40
2017-09-11T10:43:42.843Z,41.30
2017-09-11T10:46:17.818Z,41.60
2017-09-11T10:48:52.622Z,41.70
2017-09-11T10:51:27.419Z,42.50
2017-09-11T10:53:56.170Z,41.80
2017-09-11T10:56:24.867Z,42.30
2017-09-11T10:58:59.796Z,42.70
2017-09-11T11:01:28.472Z,42.70
2017-09-11T11:03:57.229Z,42.30
2017-09-11T11:06:25.912Z,42.50
2017-09-11T11:08:57.751Z,42.80
2017-09-11T11:11:26.495Z,42.90
2017-09-11T11:13:55.173Z,43.20
2017-09-11T11:16:23.851Z,43.20
2017-09-11T11:18:53.396Z,43.10
2017-09-11T11:21:22.075Z,43.40
2017-09-11T11:23:50.772Z,44.00
2017-09-11T11:26:19.460Z,44.10
2017-09-11T11:28:48.136Z,44.30
2017-09-11T11:31:16.818Z,44.60
2017-09-11T11:33:45.544Z,44.50
2017-09-11T11:36:20.624Z,44.60
2017-09-11T11:38:49.332Z,45.40
2017-09-11T11:41:18.019Z,45.70
2017-09-11T11:43:47.455Z,46.70
2017-09-11T11:46:16.153Z,46.60
2017-09-11T11:48:44.860Z,46.10
2017-09-11T11:51:19.676Z,44.40
2017-09-11T11:53:48.377Z,42.70
2017-09-11T11:56:23.371Z,38.20
2017-09-11T11:58:58.236Z,32.60
2017-09-11T12:01:26.920Z,30.90
2017-09-11T12:04:01.875Z,28.70
2017-09-11T12:06:30.660Z,27.50
2017-09-11T12:08:59.336Z,27.10
2017-09-11T12:11:28.063Z,28.60
2017-09-11T12:14:10.084Z,29.50
2017-09-11T12:16:38.767Z,31.50
2017-09-11T12:19:08.384Z,32.80
2017-09-11T12:21:37.059Z,34.00
2017-09-11T12:24:06.679Z,35.00
2017-09-11T12:26:35.359Z,35.80
2017-09-11T12:29:04.050Z,37.20
2017-09-11T12:31:32.726Z,37.60
2017-09-11T12:34:01.422Z,37.10
2017-09-11T12:36:37.387Z,37.20
2017-09-11T12:39:06.063Z,34.90
2017-09-11T12:41:42.964Z,33.30
2017-09-11T12:44:11.635Z,33.80
2017-09-11T12:46:41.318Z,33.40
2017-09-11T12:49:10.007Z,34.30
2017-09-11T12:51:45.048Z,35.20
2017-09-11T12:54:13.756Z,35.30
2017-09-11T12:56:42.431Z,35.20
2017-09-11T12:59:17.335Z,35.80
2017-09-11T13:01:46.887Z,36.90
2017-09-11T13:04:21.752Z,38.00
2017-09-11T13:06:50.431Z,39.00
2017-09-11T13:09:19.111Z,39.90
2017-09-11T13:11:47.799Z,40.80
2017-09-11T13:14:17.251Z,42.40
2017-09-11T13:16:46.015Z,42.30
2017-09-11T13:19:15.601Z,43.80
2017-09-11T13:21:44.494Z,45.10
2017-09-11T13:24:19.442Z,45.50
2017-09-11T13:26:48.138Z,47.10
2017-09-11T13:29:16.862Z,48.80
2017-09-11T13:31:51.825Z,49.50
2017-09-11T13:34:20.516Z,51.40
2017-09-11T13:36:55.334Z,51.60
2017-09-11T13:39:24.055Z,50.60
2017-09-11T13:41:52.738Z,51.00
2017-09-11T13:44:21.419Z,51.70
2017-09-11T13:46:56.288Z,46.70
2017-09-11T13:49:24.975Z,42.20
2017-09-11T13:51:53.662Z,38.20
2017-09-11T13:54:22.348Z,35.60
2017-09-11T13:56:57.324Z,33.70
2017-09-11T13:59:32.258Z,32.50
2017-09-11T14:02:00.976Z,31.90
2017-09-11T14:04:30.651Z,31.10
2017-09-11T14:06:59.326Z,31.30
2017-09-11T14:09:28.011Z,30.00
2017-09-11T14:12:02.799Z,28.80
2017-09-11T14:14:37.846Z,27.30
2017-09-11T14:17:12.641Z,25.20
2017-09-11T14:19:41.408Z,23.80
2017-09-11T14:22:10.187Z,24.10
2017-09-11T14:24:38.885Z,23.50
2017-09-11T14:27:13.803Z,22.00
2017-09-11T14:29:42.484Z,22.30
2017-09-11T14:32:17.452Z,22.90
2017-09-11T14:34:46.138Z,24.30
2017-09-11T14:37:14.827Z,25.50
2017-09-11T14:39:49.723Z,25.00
2017-09-11T14:42:25.136Z,24.20
2017-09-11T14:44:53.869Z,23.40
2017-09-11T14:47:28.817Z,24.90
2017-09-11T14:50:03.631Z,24.70
2017-09-11T14:52:32.307Z,25.00
2017-09-11T14:55:07.279Z,25.60
2017-09-11T14:57:35.973Z,25.60
2017-09-11T15:00:04.705Z,25.70
2017-09-11T15:02:33.395Z,25.50
2017-09-11T15:05:02.092Z,25.10
2017-09-11T15:07:30.843Z,24.70
2017-09-11T15:10:05.767Z,23.80
2017-09-11T15:12:40.679Z,23.10
2017-09-11T15:15:15.668Z,23.20
2017-09-11T15:17:44.447Z,23.80
2017-09-11T15:20:19.254Z,25.30
2017-09-11T15:22:54.275Z,23.50
2017-09-11T15:25:25.106Z,24.40
2017-09-11T15:28:00.211Z,25.40
2017-09-11T15:30:35.243Z,25.00
2017-09-11T15:33:04.000Z,26.90
2017-09-11T15:35:39.099Z,28.30
2017-09-11T15:38:08.902Z,29.40
2017-09-11T15:40:37.665Z,31.00
2017-09-11T15:43:06.360Z,30.60
2017-09-11T15:45:43.108Z,30.00
2017-09-11T15:48:18.039Z,29.20
2017-09-11T15:50:53.043Z,28.90
2017-09-11T15:53:21.724Z,27.90
2017-09-11T15:55:56.728Z,27.60
2017-09-11T15:58:25.409Z,27.50
2017-09-11T16:00:54.102Z,28.70
2017-09-11T16:03:22.790Z,30.00
2017-09-11T16:05:57.615Z,31.10
2017-09-11T16:08:26.304Z,31.50
2017-09-11T16:10:54.983Z,31.70
2017-09-11T16:13:23.656Z,31.50
2017-09-11T16:15:52.359Z,31.10
2017-09-11T16:18:21.883Z,29.50
2017-09-11T16:20:50.588Z,30.90
2017-09-11T16:23:19.263Z,31.50
2017-09-11T16:25:54.126Z,31.90
2017-09-11T16:28:23.768Z,30.90
2017-09-11T16:30:58.565Z,29.90
2017-09-11T16:33:28.103Z,29.80
2017-09-11T16:35:56.786Z,30.10
2017-09-11T16:38:25.483Z,29.60
2017-09-11T16:40:54.174Z,29.10
2017-09-11T16:43:22.880Z,29.10
2017-09-11T16:45:51.559Z,28.80
2017-09-11T16:48:21.335Z,28.70
2017-09-11T16:50:56.213Z,29.10
2017-09-11T16:53:24.895Z,29.30
2017-09-11T16:55:53.600Z,29.60
2017-09-11T16:58:28.484Z,30.40
2017-09-11T17:00:57.192Z,30.40
2017-09-11T17:03:31.982Z,31.20
2017-09-11T17:06:00.682Z,32.10
2017-09-11T17:08:35.561Z,32.30
2017-09-11T17:11:09.840Z,33.90
2017-09-11T17:13:39.394Z,34.20
2017-09-11T17:16:08.076Z,35.60
2017-09-11T17:18:36.767Z,36.40
2017-09-11T17:21:06.397Z,38.10
2017-09-11T17:23:41.284Z,37.60
2017-09-11T17:26:11.851Z,39.50
2017-09-11T17:28:40.547Z,40.90
2017-09-11T17:31:17.333Z,41.70
2017-09-11T17:33:52.095Z,42.60
2017-09-11T17:36:20.811Z,43.30
2017-09-11T17:38:49.484Z,44.00
2017-09-11T17:41:18.164Z,45.70
2017-09-11T17:43:46.853Z,47.40
2017-09-11T17:46:21.686Z,48.60
2017-09-11T17:48:51.129Z,49.90
2017-09-11T17:51:19.838Z,51.00
2017-09-11T17:53:54.599Z,51.60
2017-09-11T17:56:23.283Z,52.10
2017-09-11T17:58:51.967Z,52.70
2017-09-11T18:01:26.083Z,53.30
2017-09-11T18:03:55.049Z,53.60
2017-09-11T18:06:24.005Z,54.20
2017-09-11T18:08:53.505Z,55.50
2017-09-11T18:11:23.711Z,55.00
2017-09-11T18:14:03.158Z,55.20
2017-09-11T18:16:32.261Z,55.50
2017-09-11T18:19:01.255Z,55.60
2017-09-11T18:21:30.249Z,55.60
2017-09-11T18:24:16.520Z,55.90
2017-09-11T18:26:45.503Z,55.90
2017-09-11T18:29:14.243Z,56.10
2017-09-11T18:31:46.096Z,56.30
2017-09-11T18:34:14.808Z,56.70
2017-09-11T18:36:49.604Z,56.80
2017-09-11T18:39:19.240Z,57.20
2017-09-11T18:41:47.924Z,57.40
2017-09-11T18:44:16.607Z,57.60
2017-09-11T18:46:45.328Z,57.80
2017-09-11T18:49:20.101Z,58.90
2017-09-11T18:51:49.660Z,58.20
2017-09-11T18:54:36.681Z,58.40
2017-09-11T18:57:11.926Z,58.70
2017-09-11T18:59:40.732Z,59.20
2017-09-11T19:02:09.391Z,59.40
2017-09-11T19:04:38.088Z,59.40
2017-09-11T19:07:13.640Z,59.90
2017-09-11T19:09:48.648Z,59.90
2017-09-11T19:12:23.479Z,60.00
2017-09-11T19:14:52.181Z,60.00
2017-09-11T19:17:20.859Z,60.00
2017-09-11T19:19:49.592Z,60.00
2017-09-11T19:22:18.299Z,60.20
2017-09-11T19:24:46.980Z,60.40
2017-09-11T19:27:21.846Z,60.30
2017-09-11T19:29:50.532Z,60.20
2017-09-11T19:32:19.220Z,60.30
2017-09-11T19:34:47.911Z,60.50
2017-09-11T19:37:16.586Z,60.80
2017-09-11T19:40:03.089Z,60.70
2017-09-11T19:42:31.758Z,60.90
2017-09-11T19:45:00.447Z,61.10
2017-09-11T19:47:29.143Z,61.20
2017-09-11T19:50:04.055Z,61.00
2017-09-11T19:52:39.061Z,61.10
2017-09-11T19:55:07.742Z,61.00
2017-09-11T19:57:36.427Z,61.20
2017-09-11T20:00:05.123Z,61.30
2017-09-11T20:02:33.799Z,61.20
2017-09-11T20:05:02.501Z,61.20
2017-09-11T20:07:37.339Z,61.30
2017-09-11T20:10:06.046Z,61.40
2017-09-11T20:12:40.979Z,61.70
2017-09-11T20:15:11.684Z,61.70
2017-09-11T20:17:48.608Z,61.80
2017-09-11T20:20:17.321Z,61.80
2017-09-11T20:22:46.011Z,61.90
2017-09-11T20:25:14.699Z,62.00
2017-09-11T20:27:43.432Z,62.10
2017-09-11T20:30:51.323Z,62.30
2017-09-11T20:33:20.795Z,62.40
2017-09-11T20:35:55.906Z,62.30
2017-09-11T20:38:25.751Z,62.60
2017-09-11T20:40:55.606Z,62.60
2017-09-11T20:43:27.593Z,62.60
2017-09-11T20:45:56.574Z,62.50
2017-09-11T20:48:31.508Z,62.60
2017-09-11T20:51:06.581Z,62.60
2017-09-11T20:53:35.266Z,62.70
2017-09-11T20:56:03.974Z,62.60
2017-09-11T20:58:33.431Z,62.50
2017-09-11T21:01:10.317Z,62.60
2017-09-11T21:03:45.332Z,62.60
2017-09-11T21:06:14.152Z,62.70
2017-09-11T21:08:42.849Z,62.90
2017-09-11T21:11:11.530Z,63.00
2017-09-11T21:13:40.232Z,63.00
2017-09-11T21:16:09.145Z,62.90
2017-09-11T21:18:38.967Z,62.80
2017-09-11T21:21:13.837Z,62.80
2017-09-11T21:23:42.504Z,62.90
2017-09-11T21:26:11.174Z,62.90
2017-09-11T21:28:46.120Z,62.90
2017-09-11T21:31:15.911Z,62.90
2017-09-11T21:33:44.622Z,62.90
2017-09-11T21:36:14.192Z,62.70
2017-09-11T21:38:43.648Z,62.50
2017-09-11T21:41:12.331Z,62.50
2017-09-11T21:43:47.035Z,62.70
2017-09-11T21:46:15.738Z,62.80
2017-09-11T21:48:44.431Z,63.00
2017-09-11T21:51:13.113Z,63.10
2017-09-11T21:53:41.805Z,63.10
2017-09-11T21:56:11.327Z,63.10
2017-09-11T21:58:45.319Z,63.20
2017-09-11T22:01:14.010Z,63.10
2017-09-11T22:03:44.693Z,62.90
2017-09-11T22:06:13.379Z,62.60
2017-09-11T22:08:42.065Z,62.60
2017-09-11T22:11:10.782Z,62.40
2017-09-11T22:13:39.459Z,62.20
2017-09-11T22:16:08.148Z,62.10
2017-09-11T22:18:45.107Z,62.20
2017-09-11T22:21:13.795Z,62.10
2017-09-11T22:23:42.505Z,62.20
2017-09-11T22:26:17.459Z,62.30
2017-09-11T22:28:46.160Z,62.60
2017-09-11T22:31:15.613Z,62.80
2017-09-11T22:33:46.286Z,62.70
2017-09-11T22:36:14.963Z,62.80
2017-09-11T22:38:49.882Z,62.90
2017-09-11T22:41:18.582Z,62.90
2017-09-11T22:43:47.244Z,63.00
2017-09-11T22:46:15.932Z,63.00
2017-09-11T22:48:51.684Z,63.40
2017-09-11T22:51:20.380Z,63.30
2017-09-11T22:53:55.511Z,63.50
2017-09-11T22:56:24.220Z,63.40
2017-09-11T22:58:52.916Z,63.60
2017-09-11T23:01:22.377Z,63.80
2017-09-11T23:03:52.081Z,63.80
2017-09-11T23:06:20.772Z,64.10
2017-09-11T23:08:49.461Z,64.40
2017-09-11T23:11:24.303Z,65.30
2017-09-11T23:13:52.996Z,64.70
2017-09-11T23:16:21.680Z,64.60
2017-09-11T23:18:59.652Z,64.40
2017-09-11T23:21:28.339Z,64.30
2017-09-11T23:23:57.028Z,64.30
2017-09-11T23:26:29.604Z,64.50
2017-09-11T23:28:59.216Z,64.70
2017-09-11T23:31:27.901Z,64.80
2017-09-11T23:34:02.830Z,64.70
2017-09-11T23:36:34.904Z,64.60
2017-09-11T23:39:03.615Z,64.40
2017-09-11T23:41:32.302Z,64.30
2017-09-11T23:44:00.986Z,64.30
2017-09-11T23:46:29.729Z,64.40
2017-09-11T23:48:58.403Z,64.40
2017-09-11T23:51:27.107Z,64.40
2017-09-11T23:54:02.081Z,64.30
2017-09-11T23:56:37.088Z,64.50
2017-09-11T23:59:05.772Z,64.50
